Time;durP1;ratioP1;P1;durP2;ratioP2;P2;SDS_P1;SDS_P2;PMS_P1;PMS_P2;Temp;Humidity;BMP_temperature;BMP_pressure;BME280_temperature;BME280_humidity;BME280_pressure;Samples;Min_cycle;Max_cycle;Signal;HPM_P1;HPM_P2
2021/06/27 00:00:44;;;;;;;;;17.00;14.75;;;;;21.25;100.00;101145.38;4919567;28;45414;-67
2021/06/27 00:03:12;;;;;;;;;12.00;10.75;;;;;21.26;100.00;101149.75;4919173;28;46064;-66
2021/06/27 00:08:59;;;;;;;;;16.00;15.00;;;;;21.28;100.00;101170.97;4922604;28;45294;-66
2021/06/27 00:11:25;;;;;;;;;18.00;16.50;;;;;21.31;100.00;101176.09;4922757;28;45601;-66
2021/06/27 00:13:51;;;;;;;;;16.50;16.50;;;;;21.31;100.00;101179.63;4922508;28;46086;-66
2021/06/27 00:16:18;;;;;;;;;15.25;13.25;;;;;21.19;100.00;101161.63;4922420;28;45365;-66
2021/06/27 00:18:45;;;;;;;;;16.25;15.25;;;;;21.30;100.00;101177.91;4922539;28;45407;-66
2021/06/27 00:21:12;;;;;;;;;15.75;13.00;;;;;21.30;100.00;101177.03;4922546;28;45521;-66
2021/06/27 00:23:43;;;;;;;;;15.00;13.50;;;;;21.28;100.00;101176.28;4921888;28;46334;-66
2021/06/27 00:26:12;;;;;;;;;18.25;17.75;;;;;21.22;100.00;101168.56;4922001;28;45643;-65
2021/06/27 00:28:38;;;;;;;;;16.25;14.00;;;;;21.25;100.00;101171.09;4922507;28;45351;-66
2021/06/27 00:31:04;;;;;;;;;16.25;16.00;;;;;21.26;100.00;101180.78;4922464;28;45366;-66
2021/06/27 00:33:30;;;;;;;;;17.50;16.75;;;;;21.24;100.00;101198.59;4921844;28;47027;-67
2021/06/27 00:35:56;;;;;;;;;15.75;14.75;;;;;21.23;100.00;101196.84;4921939;28;45408;-67
2021/06/27 00:38:24;;;;;;;;;17.50;15.75;;;;;21.26;100.00;101202.03;4922276;28;45276;-66
2021/06/27 00:40:50;;;;;;;;;16.25;16.00;;;;;21.24;100.00;101199.44;4921853;28;45668;-66
2021/06/27 00:43:15;;;;;;;;;18.00;17.25;;;;;21.18;100.00;101197.06;4921802;28;47437;-67
2021/06/27 00:45:41;;;;;;;;;20.50;16.25;;;;;21.25;100.00;101208.28;4921682;28;45379;-67
2021/06/27 00:48:07;;;;;;;;;16.50;15.50;;;;;21.21;100.00;101201.38;4922285;28;45394;-67
2021/06/27 00:53:54;;;;;;;;;18.00;16.25;;;;;21.22;100.00;101211.06;4921693;28;45321;-67
2021/06/27 00:56:19;;;;;;;;;15.00;14.00;;;;;21.19;100.00;101198.78;4921680;28;45413;-67
2021/06/27 00:58:45;;;;;;;;;16.00;14.25;;;;;21.22;100.00;101208.41;4921878;28;45431;-67
2021/06/27 01:01:11;;;;;;;;;20.75;18.75;;;;;21.17;100.00;101194.50;4921989;28;45398;-67
2021/06/27 01:03:37;;;;;;;;;15.75;14.75;;;;;21.22;100.00;101197.78;4921491;28;46390;-67
2021/06/27 01:09:24;;;;;;;;;20.75;17.75;;;;;21.19;100.00;101176.69;4921551;28;45325;-66
2021/06/27 01:11:49;;;;;;;;;18.25;17.00;;;;;21.14;100.00;101152.19;4920595;28;45437;-67
2021/06/27 01:14:15;;;;;;;;;15.25;13.50;;;;;21.12;100.00;101144.28;4921530;28;46013;-67
2021/06/27 01:16:41;;;;;;;;;18.50;14.75;;;;;21.10;100.00;101141.72;4920239;28;45366;-67
2021/06/27 01:19:09;;;;;;;;;15.75;15.50;;;;;21.05;100.00;101124.31;4921405;28;45454;-67
2021/06/27 01:21:36;;;;;;;;;21.00;17.25;;;;;21.03;100.00;101145.59;4921743;28;45223;-67
2021/06/27 01:24:03;;;;;;;;;20.75;19.00;;;;;21.04;100.00;101141.16;4920981;28;46451;-67
2021/06/27 01:26:28;;;;;;;;;18.25;16.50;;;;;21.01;100.00;101144.81;4921350;28;45330;-67
2021/06/27 01:28:54;;;;;;;;;16.75;16.00;;;;;20.97;100.00;101137.09;4921117;28;45360;-67
2021/06/27 01:31:19;;;;;;;;;18.00;17.25;;;;;20.92;100.00;101128.53;4921748;28;45462;-67
2021/06/27 01:40:16;;;;;;;;;16.50;16.50;;;;;20.83;100.00;101140.47;4921058;28;45374;-66
2021/06/27 01:42:41;;;;;;;;;17.50;17.00;;;;;20.87;100.00;101146.47;4920045;28;45651;-66
2021/06/27 01:45:15;;;;;;;;;19.25;17.75;;;;;20.86;100.00;101153.59;4920871;28;45926;-67
2021/06/27 01:47:40;;;;;;;;;19.25;16.75;;;;;20.86;100.00;101158.03;4921012;28;45395;-67
2021/06/27 01:50:08;;;;;;;;;17.00;16.00;;;;;20.81;100.00;101155.59;4920869;28;45324;-67
2021/06/27 01:52:35;;;;;;;;;19.00;17.25;;;;;20.82;100.00;101153.78;4921371;28;45269;-67
2021/06/27 01:55:00;;;;;;;;;18.00;17.00;;;;;20.75;100.00;101134.69;4921115;28;45561;-67
2021/06/27 01:57:26;;;;;;;;;17.75;16.50;;;;;20.74;100.00;101127.66;4920810;28;45295;-67
2021/06/27 01:59:51;;;;;;;;;19.25;18.25;;;;;20.78;100.00;101129.22;4920957;28;45293;-66
2021/06/27 02:02:17;;;;;;;;;17.50;16.50;;;;;20.70;100.00;101115.47;4921188;28;45265;-67
2021/06/27 02:04:43;;;;;;;;;21.00;18.75;;;;;20.75;100.00;101124.06;4920455;28;47577;-67
2021/06/27 02:07:09;;;;;;;;;20.50;18.50;;;;;20.74;100.00;101117.91;4919504;28;45651;-67
2021/06/27 02:09:34;;;;;;;;;18.75;18.50;;;;;20.78;100.00;101126.56;4920762;28;45484;-67
2021/06/27 02:12:00;;;;;;;;;17.50;16.50;;;;;20.76;100.00;101117.81;4920796;28;45600;-66
2021/06/27 02:14:25;;;;;;;;;17.25;16.50;;;;;20.74;100.00;101107.28;4920771;28;46185;-67
2021/06/27 02:16:51;;;;;;;;;19.75;16.75;;;;;20.74;100.00;101094.00;4920510;28;45444;-67
2021/06/27 02:19:16;;;;;;;;;21.50;19.00;;;;;20.78;100.00;101102.66;4920797;28;45353;-67
2021/06/27 02:21:42;;;;;;;;;18.50;17.50;;;;;20.77;100.00;101096.50;4920636;28;45344;-67
2021/06/27 02:24:08;;;;;;;;;19.50;17.50;;;;;20.73;100.00;101092.28;4920176;28;47418;-67
2021/06/27 02:26:34;;;;;;;;;19.25;17.25;;;;;20.77;100.00;101093.00;4920467;28;45798;-67
2021/06/27 02:29:00;;;;;;;;;20.00;17.75;;;;;20.77;100.00;101075.28;4920535;28;45296;-67
2021/06/27 02:31:27;;;;;;;;;22.25;18.50;;;;;20.72;100.00;101057.88;4920690;28;45582;-67
2021/06/27 02:33:53;;;;;;;;;19.75;18.25;;;;;20.75;100.00;101057.72;4920085;28;47586;-67
2021/06/27 02:39:40;;;;;;;;;20.75;19.75;;;;;20.74;100.00;101042.72;4920300;28;45360;-66
2021/06/27 02:42:06;;;;;;;;;18.50;16.25;;;;;20.69;100.00;101040.31;4920436;28;45282;-67
2021/06/27 02:44:31;;;;;;;;;17.00;16.00;;;;;20.63;100.00;101024.72;4919734;28;46585;-67
2021/06/27 02:46:57;;;;;;;;;19.75;17.50;;;;;20.68;100.00;101028.00;4920403;28;45229;-66
2021/06/27 02:49:23;;;;;;;;;19.00;16.50;;;;;20.68;100.00;101024.47;4920295;28;45291;-66
2021/06/27 02:51:49;;;;;;;;;20.25;16.75;;;;;20.65;100.00;101019.34;4920479;28;45249;-66
2021/06/27 02:54:15;;;;;;;;;20.25;18.25;;;;;20.60;100.00;101008.09;4919839;28;45434;-66
2021/06/27 02:56:40;;;;;;;;;18.75;17.25;;;;;20.66;100.00;101021.06;4920254;28;45308;-67
2021/06/27 02:59:06;;;;;;;;;14.00;13.25;;;;;20.62;100.00;101012.41;4920251;28;45419;-67
2021/06/27 03:01:31;;;;;;;;;19.25;18.25;;;;;20.58;100.00;101005.50;4920141;28;45350;-67
2021/06/27 03:03:56;;;;;;;;;19.00;17.25;;;;;20.55;100.00;101000.38;4919675;28;46864;-67
2021/06/27 03:09:43;;;;;;;;;17.00;15.00;;;;;20.56;100.00;100994.13;4919994;28;45308;-67
2021/06/27 03:12:11;;;;;;;;;13.75;13.75;;;;;20.58;100.00;100994.03;4919955;28;45274;-67
2021/06/27 03:14:37;;;;;;;;;15.00;14.50;;;;;20.56;100.00;101003.88;4919612;28;45494;-66
2021/06/27 03:17:02;;;;;;;;;16.00;14.00;;;;;20.56;100.00;101006.53;4919514;28;45299;-66
2021/06/27 03:19:28;;;;;;;;;18.00;16.00;;;;;20.46;100.00;100988.44;4919725;28;45342;-66
2021/06/27 03:21:53;;;;;;;;;18.00;17.25;;;;;20.47;100.00;100994.59;4918744;28;45374;-67
2021/06/27 03:24:18;;;;;;;;;16.25;15.50;;;;;20.53;100.00;101009.34;4919327;28;46688;-66
2021/06/27 03:26:44;;;;;;;;;16.25;15.75;;;;;20.49;100.00;101006.84;4919374;28;45428;-66
2021/06/27 03:29:09;;;;;;;;;15.75;15.00;;;;;20.48;100.00;101005.13;4919727;28;45304;-66
2021/06/27 03:31:35;;;;;;;;;18.00;17.00;;;;;20.43;100.00;101001.88;4919892;28;45463;-67
2021/06/27 03:34:00;;;;;;;;;16.00;14.75;;;;;20.45;100.00;101012.41;4919608;28;46060;-66
2021/06/27 03:39:48;;;;;;;;;18.25;14.25;;;;;20.38;100.00;101011.81;4921967;28;45403;-67
2021/06/27 03:42:13;;;;;;;;;18.50;16.00;;;;;20.36;100.00;101005.72;4923361;28;45373;-67
2021/06/27 03:44:39;;;;;;;;;19.00;18.25;;;;;20.42;100.00;101013.41;4937369;28;46347;-67
2021/06/27 03:47:04;;;;;;;;;18.50;18.50;;;;;20.41;100.00;101006.41;4922621;28;45381;-67
2021/06/27 03:49:29;;;;;;;;;19.00;18.25;;;;;20.42;100.00;101002.81;4922803;28;45205;-67
2021/06/27 03:55:18;;;;;;;;;24.25;20.25;;;;;20.37;100.00;100988.03;4922519;28;45851;-67
2021/06/27 03:57:45;;;;;;;;;17.50;16.75;;;;;20.39;100.00;100992.31;4922751;28;45678;-66
2021/06/27 04:00:11;;;;;;;;;22.75;18.75;;;;;20.34;100.00;100991.66;4922490;28;45289;-67
2021/06/27 04:02:37;;;;;;;;;23.25;20.50;;;;;20.39;100.00;101004.72;4922778;28;45438;-67
2021/06/27 04:05:04;;;;;;;;;24.75;23.25;;;;;20.35;100.00;101003.13;4922185;28;46400;-67
2021/06/27 04:07:30;;;;;;;;;25.75;24.00;;;;;20.25;100.00;100989.50;4922496;28;45333;-67
2021/06/27 04:09:55;;;;;;;;;22.25;20.75;;;;;20.32;100.00;101006.81;4922548;28;45389;-67
2021/06/27 04:12:20;;;;;;;;;20.25;19.00;;;;;20.32;100.00;101012.09;4922842;28;45452;-67
2021/06/27 04:14:46;;;;;;;;;23.50;20.50;;;;;20.22;100.00;101000.25;4922019;28;46203;-67
2021/06/27 04:17:16;;;;;;;;;26.25;24.50;;;;;20.28;100.00;101012.34;4921761;28;45401;-67
2021/06/27 04:19:42;;;;;;;;;23.50;22.00;;;;;20.32;100.00;101033.31;4922044;28;45313;-68
2021/06/27 04:25:43;;;;;;;;;22.00;21.50;;;;;20.24;100.00;101051.44;4927934;28;45489;-68
2021/06/27 04:28:08;;;;;;;;;22.00;19.50;;;;;20.18;100.00;101042.00;4922016;28;45316;-67
2021/06/27 04:30:35;;;;;;;;;20.75;18.50;;;;;20.24;100.00;101037.31;4922100;28;45346;-67
2021/06/27 04:33:02;;;;;;;;;21.00;20.25;;;;;20.25;100.00;101039.03;4922240;28;45409;-67
2021/06/27 04:35:27;;;;;;;;;25.00;24.25;;;;;20.27;100.00;101037.16;4922212;28;45371;-67
2021/06/27 04:37:53;;;;;;;;;14.75;13.75;;;;;20.27;100.00;101022.09;4922225;28;45375;-67
2021/06/27 04:40:19;;;;;;;;;19.25;19.25;;;;;20.23;100.00;101009.94;4922283;28;45868;-67
2021/06/27 04:42:44;;;;;;;;;21.50;20.50;;;;;20.28;100.00;101010.56;4922181;28;45375;-67
2021/06/27 04:45:10;;;;;;;;;21.25;19.75;;;;;20.30;100.00;100999.88;4922073;28;46428;-67
2021/06/27 04:47:36;;;;;;;;;20.25;18.75;;;;;20.34;100.00;101014.69;4921825;28;45819;-67
2021/06/27 04:50:04;;;;;;;;;24.00;23.00;;;;;20.35;100.00;101011.94;4921880;28;45286;-68
2021/06/27 04:52:31;;;;;;;;;22.00;19.75;;;;;20.31;100.00;100990.97;4922282;28;45554;-68
2021/06/27 04:54:56;;;;;;;;;20.75;19.25;;;;;20.32;100.00;100993.53;4921679;28;47444;-67
2021/06/27 04:57:21;;;;;;;;;20.75;18.50;;;;;20.40;100.00;101007.34;4921659;28;45355;-67
2021/06/27 04:59:47;;;;;;;;;21.75;19.00;;;;;20.37;100.00;101004.81;4921611;28;45287;-67
2021/06/27 05:02:12;;;;;;;;;22.25;19.00;;;;;20.36;100.00;100997.75;4922035;28;45479;-67
2021/06/27 05:04:37;;;;;;;;;19.00;17.75;;;;;20.26;100.00;100980.59;4921391;28;47147;-68
2021/06/27 05:10:24;;;;;;;;;21.25;18.75;;;;;20.43;100.00;101003.66;4921469;28;45415;-69
2021/06/27 05:12:50;;;;;;;;;19.75;18.75;;;;;20.49;100.00;101011.28;4921920;28;45350;-68
2021/06/27 05:15:15;;;;;;;;;20.25;18.50;;;;;20.48;100.00;101005.13;4921196;28;46311;-66
2021/06/27 05:29:35;;;;;;;;;22.25;19.00;;;;;20.60;100.00;100986.88;5109712;27;45578;-66
2021/06/27 05:32:01;;;;;;;;;19.00;18.00;;;;;20.66;100.00;100995.38;5071294;27;45347;-67
2021/06/27 05:34:30;;;;;;;;;18.75;15.50;;;;;20.71;100.00;101001.28;5082611;27;45348;-67
2021/06/27 05:36:59;;;;;;;;;18.75;17.25;;;;;20.74;100.00;101010.88;5091695;27;45588;-68
2021/06/27 05:39:25;;;;;;;;;19.75;17.50;;;;;20.69;100.00;101003.16;5092499;27;46650;-66
2021/06/27 05:41:50;;;;;;;;;18.50;17.25;;;;;20.78;100.00;101012.44;5089159;27;45460;-66
2021/06/27 05:44:16;;;;;;;;;18.50;16.00;;;;;20.82;100.00;101008.72;5081396;27;45394;-67
2021/06/27 05:46:41;;;;;;;;;21.50;18.75;;;;;20.79;100.00;100998.22;5092655;27;45256;-67
2021/06/27 05:49:08;;;;;;;;;17.00;16.00;;;;;20.70;100.00;100983.66;5092084;27;46402;-67
2021/06/27 05:51:37;;;;;;;;;18.75;15.00;;;;;20.81;100.00;100991.03;5080394;27;45453;-67
2021/06/27 05:54:03;;;;;;;;;18.75;17.00;;;;;20.88;100.00;101004.88;5091103;27;45514;-67
2021/06/27 05:56:28;;;;;;;;;19.00;18.75;;;;;20.90;100.00;101013.59;5093223;27;45490;-67
2021/06/27 05:58:53;;;;;;;;;18.25;18.00;;;;;20.87;100.00;101003.16;5092556;27;45489;-67
2021/06/27 06:01:19;;;;;;;;;17.50;16.25;;;;;20.89;100.00;100998.63;5092113;27;45490;-67
2021/06/27 06:03:45;;;;;;;;;18.00;17.50;;;;;20.95;100.00;101003.59;5092024;27;45513;-66
2021/06/27 06:06:12;;;;;;;;;18.00;17.00;;;;;20.96;100.00;101010.63;5092908;27;45315;-66
2021/06/27 06:08:40;;;;;;;;;19.25;18.25;;;;;20.98;100.00;101006.94;5084750;27;46592;-66
2021/06/27 06:11:07;;;;;;;;;17.50;17.25;;;;;21.00;100.00;101014.81;5083439;27;45486;-66
2021/06/27 06:13:33;;;;;;;;;14.75;13.00;;;;;20.95;100.00;101004.44;5081472;27;45397;-66
2021/06/27 06:15:58;;;;;;;;;19.25;18.25;;;;;21.00;100.00;101013.03;5086372;27;45525;-67
2021/06/27 06:18:24;;;;;;;;;17.00;15.50;;;;;21.06;100.00;101006.56;5083248;27;47107;-67
2021/06/27 06:20:49;;;;;;;;;20.00;18.25;;;;;21.10;100.00;101011.59;5090594;27;45435;-67
2021/06/27 06:23:14;;;;;;;;;14.75;14.25;;;;;21.09;100.00;101004.59;5091877;27;45345;-67
2021/06/27 06:25:40;;;;;;;;;19.50;18.25;;;;;21.20;100.00;101011.09;5079710;27;45263;-67
2021/06/27 06:28:05;;;;;;;;;21.75;18.50;;;;;21.20;100.00;101008.44;5090234;27;45442;-67
2021/06/27 06:30:31;;;;;;;;;18.25;16.00;;;;;21.20;100.00;101001.34;5078248;27;45368;-67
2021/06/27 06:32:56;;;;;;;;;22.25;20.25;;;;;21.28;100.00;101007.13;5071323;28;45513;-65
2021/06/27 06:35:21;;;;;;;;;18.75;17.75;;;;;21.35;100.00;101018.28;5078871;27;45510;-65
2021/06/27 06:37:47;;;;;;;;;21.00;18.50;;;;;21.37;100.00;101013.75;5078147;27;45388;-67
2021/06/27 06:40:12;;;;;;;;;21.00;18.50;;;;;21.36;100.00;101009.38;5064098;27;45400;-67
2021/06/27 06:42:38;;;;;;;;;19.50;17.75;;;;;21.43;100.00;101010.72;5078376;27;45338;-66
2021/06/27 06:45:04;;;;;;;;;21.25;18.75;;;;;21.45;100.00;101010.66;5078569;27;45439;-67
2021/06/27 06:47:29;;;;;;;;;19.00;18.75;;;;;21.45;100.00;101008.84;5077725;27;45654;-66
2021/06/27 06:49:55;;;;;;;;;17.00;15.00;;;;;21.54;100.00;101020.78;5062371;28;45580;-67
2021/06/27 06:52:22;;;;;;;;;19.75;18.50;;;;;21.57;100.00;101015.28;5069553;28;45518;-67
2021/06/27 06:54:47;;;;;;;;;18.00;17.25;;;;;21.57;100.00;101015.28;5077873;28;45487;-67
2021/06/27 06:57:13;;;;;;;;;21.25;18.75;;;;;21.67;100.00;101029.78;5077544;28;46155;-67
2021/06/27 06:59:38;;;;;;;;;18.25;18.00;;;;;21.68;100.00;101020.84;5078271;27;45493;-66
2021/06/27 07:02:04;;;;;;;;;19.25;18.25;;;;;21.78;100.00;101021.22;5064969;27;45448;-67
2021/06/27 07:04:29;;;;;;;;;22.00;19.50;;;;;21.80;100.00;101019.31;5067826;28;45278;-67
2021/06/27 07:06:55;;;;;;;;;19.00;18.50;;;;;21.86;100.00;101013.66;5076229;27;47016;-67
2021/06/27 07:09:20;;;;;;;;;20.25;18.75;;;;;21.90;100.00;101015.19;5070239;28;45525;-67
2021/06/27 07:11:46;;;;;;;;;23.25;20.25;;;;;22.01;100.00;101021.63;5086940;27;45377;-66
2021/06/27 07:14:11;;;;;;;;;17.25;16.50;;;;;22.00;100.00;101013.72;5077861;27;45199;-66
2021/06/27 07:16:37;;;;;;;;;25.00;21.00;;;;;22.12;100.00;101023.69;5077702;28;46855;-68
2021/06/27 07:19:02;;;;;;;;;19.50;17.50;;;;;22.15;100.00;101022.66;5060773;27;45577;-67
2021/06/27 07:21:29;;;;;;;;;21.00;18.25;;;;;22.18;100.00;101019.81;5066716;28;45292;-67
2021/06/27 07:23:55;;;;;;;;;22.75;18.50;;;;;22.23;100.00;101004.44;5063673;28;45344;-67
2021/06/27 07:26:22;;;;;;;;;19.00;17.75;;;;;22.39;100.00;101020.34;5077178;28;45432;-67
2021/06/27 07:28:47;;;;;;;;;20.50;18.75;;;;;22.45;100.00;101017.34;5077019;27;45751;-67
2021/06/27 07:31:13;;;;;;;;;22.00;19.00;;;;;22.51;100.00;101015.16;5063413;27;45949;-66
2021/06/27 07:33:38;;;;;;;;;18.25;18.25;;;;;22.62;100.00;101022.50;5077236;28;45443;-67
2021/06/27 07:36:05;;;;;;;;;18.25;18.00;;;;;22.65;100.00;101011.69;5064012;27;46495;-67
2021/06/27 07:38:31;;;;;;;;;19.00;18.00;;;;;22.80;100.00;101017.88;5076626;28;45525;-67
2021/06/27 07:40:56;;;;;;;;;18.75;18.25;;;;;22.85;100.00;101008.69;5076583;27;45331;-67
2021/06/27 07:43:21;;;;;;;;;20.25;18.50;;;;;23.00;100.00;101014.03;5077353;27;45464;-67
2021/06/27 07:45:47;;;;;;;;;20.50;20.00;;;;;23.03;100.00;101004.03;5067943;27;46420;-67
2021/06/27 07:48:12;;;;;;;;;22.50;21.75;;;;;23.13;100.00;101007.88;5090911;27;45427;-67
2021/06/27 07:50:39;;;;;;;;;20.25;18.25;;;;;23.21;100.00;101007.38;5076197;28;45390;-67
2021/06/27 07:53:05;;;;;;;;;20.00;19.25;;;;;23.29;100.00;101004.22;5069340;28;45619;-67
2021/06/27 07:55:31;;;;;;;;;17.50;17.50;;;;;23.35;100.00;101006.53;5076962;27;46808;-67
2021/06/27 07:57:56;;;;;;;;;20.00;18.75;;;;;23.38;100.00;100993.84;5077229;27;45358;-68
2021/06/27 08:00:22;;;;;;;;;19.25;17.75;;;;;23.48;100.00;100994.97;5076887;27;45882;-67
2021/06/27 08:02:48;;;;;;;;;20.75;19.00;;;;;23.54;100.00;100983.06;5067564;28;45495;-68
2021/06/27 08:05:13;;;;;;;;;18.25;16.50;;;;;23.56;100.00;100972.31;5061067;28;46254;-68
2021/06/27 08:07:39;;;;;;;;;22.25;19.50;;;;;23.62;100.00;100979.94;5077367;27;45442;-68
2021/06/27 08:10:06;;;;;;;;;23.75;21.75;;;;;23.71;100.00;100988.19;5063531;27;45434;-68
2021/06/27 08:12:32;;;;;;;;;23.00;20.50;;;;;23.72;100.00;100981.03;5076381;28;45582;-68
2021/06/27 08:14:58;;;;;;;;;21.25;21.00;;;;;23.74;100.00;100971.13;5076378;27;46752;-68
2021/06/27 08:17:23;;;;;;;;;20.00;19.50;;;;;23.75;100.00;100964.84;5062539;28;45411;-68
2021/06/27 08:19:49;;;;;;;;;21.75;21.00;;;;;23.89;100.00;100979.94;5076523;27;45476;-69
2021/06/27 08:22:15;;;;;;;;;20.50;19.75;;;;;23.90;100.00;100965.66;5062798;28;45452;-67
2021/06/27 08:24:40;;;;;;;;;24.75;22.75;;;;;23.98;100.00;100969.50;5074221;27;46490;-67
2021/06/27 08:27:07;;;;;;;;;21.75;21.25;;;;;24.05;100.00;100981.50;5076271;27;45331;-68
2021/06/27 08:29:32;;;;;;;;;25.25;21.00;;;;;23.99;100.00;100970.34;5076400;27;45464;-67
2021/06/27 08:31:58;;;;;;;;;25.75;22.50;;;;;24.06;100.00;100988.53;5075758;28;45487;-66
2021/06/27 08:34:23;;;;;;;;;20.50;19.25;;;;;24.11;100.00;100988.22;5068204;27;45397;-68
2021/06/27 08:36:49;;;;;;;;;23.00;21.75;;;;;24.08;100.00;100991.09;5063524;28;45517;-68
2021/06/27 08:39:14;;;;;;;;;23.50;23.50;;;;;24.05;100.00;100991.31;5076755;27;45325;-68
2021/06/27 08:41:40;;;;;;;;;29.00;25.75;;;;;24.02;100.00;100999.53;5072754;27;45339;-68
2021/06/27 08:44:06;;;;;;;;;21.25;21.00;;;;;23.97;100.00;100997.13;5070576;27;46624;-67
2021/06/27 08:46:36;;;;;;;;;20.50;19.25;;;;;23.87;100.00;100990.72;5074446;27;45722;-66
2021/06/27 08:49:02;;;;;;;;;22.50;21.50;;;;;23.86;100.00;100988.16;5064244;28;45454;-68
2021/06/27 08:51:34;;;;;;;;;23.75;21.50;;;;;23.81;100.00;100983.13;5076016;28;45466;-66
2021/06/27 08:54:00;;;;;;;;;25.75;22.50;;;;;23.80;100.00;100979.59;5063060;28;45521;-67
2021/06/27 08:56:25;;;;;;;;;21.75;20.25;;;;;23.85;100.00;100987.28;5075986;27;45442;-68
2021/06/27 08:58:51;;;;;;;;;24.75;23.00;;;;;23.83;100.00;100982.06;5070865;27;45778;-68
2021/06/27 09:01:18;;;;;;;;;24.25;22.00;;;;;23.87;100.00;100990.72;5056440;28;45387;-67
2021/06/27 09:03:51;;;;;;;;;23.75;22.50;;;;;23.90;100.00;100994.97;5069684;28;46485;-67
2021/06/27 09:06:33;;;;;;;;;26.00;24.00;;;;;23.80;100.00;100990.25;5066017;28;45386;-68
2021/06/27 09:09:10;;;;;;;;;30.25;28.75;;;;;23.79;100.00;100999.22;5073903;28;45487;-68
2021/06/27 09:11:36;;;;;;;;;23.25;22.25;;;;;23.79;100.00;101015.22;5076388;27;45402;-67
2021/06/27 09:14:02;;;;;;;;;24.25;23.00;;;;;23.71;100.00;100998.00;5061538;27;45518;-68
2021/06/27 09:16:28;;;;;;;;;23.25;23.00;;;;;23.74;100.00;101006.63;5076050;27;45420;-68
2021/06/27 09:18:59;;;;;;;;;26.50;22.50;;;;;23.71;100.00;101004.19;5072749;28;45525;-68
2021/06/27 09:21:25;;;;;;;;;22.75;21.00;;;;;23.65;100.00;100996.59;5076271;27;45438;-67
2021/06/27 09:23:51;;;;;;;;;20.50;19.50;;;;;23.68;100.00;101009.72;5072484;28;48120;-68
2021/06/27 09:26:31;;;;;;;;;19.25;18.00;;;;;23.62;100.00;101011.94;5073719;28;45461;-68
2021/06/27 09:28:57;;;;;;;;;24.00;19.50;;;;;23.59;100.00;101017.47;5074092;28;45462;-68
2021/06/27 09:31:43;;;;;;;;;19.00;19.00;;;;;23.55;100.00;101015.91;5061794;28;45467;-68
2021/06/27 09:34:13;;;;;;;;;18.75;18.00;;;;;23.54;100.00;101020.41;5074287;28;46660;-68
2021/06/27 09:36:49;;;;;;;;;20.00;17.50;;;;;23.49;100.00;101018.00;5061368;27;45742;-68
2021/06/27 09:39:15;;;;;;;;;23.00;22.00;;;;;23.48;100.00;101028.75;5074246;28;45381;-68
2021/06/27 09:41:50;;;;;;;;;21.75;19.25;;;;;23.44;100.00;101028.09;5075944;27;45532;-68
2021/06/27 09:44:17;;;;;;;;;18.75;18.50;;;;;23.39;100.00;101032.00;5075270;27;45775;-68
2021/06/27 09:46:46;;;;;;;;;16.75;16.75;;;;;23.36;100.00;101034.88;5072532;27;45299;-68
2021/06/27 09:49:18;;;;;;;;;23.50;20.25;;;;;23.36;100.00;101041.06;5064627;28;45379;-68
2021/06/27 09:51:55;;;;;;;;;20.25;19.75;;;;;23.28;100.00;101048.66;5061381;27;45404;-68
2021/06/27 09:54:23;;;;;;;;;19.50;17.75;;;;;23.13;100.00;101039.84;5065253;27;46623;-68
2021/06/27 09:56:49;;;;;;;;;21.25;20.00;;;;;23.05;100.00;101049.22;5071476;28;45439;-68
2021/06/27 09:59:19;;;;;;;;;22.50;20.75;;;;;22.95;100.00;101045.44;5075089;28;45435;-68
2021/06/27 10:01:45;;;;;;;;;23.50;20.75;;;;;22.89;100.00;101049.31;5060828;27;45275;-68
2021/06/27 10:04:27;;;;;;;;;22.75;20.00;;;;;22.85;100.00;101047.78;5073938;28;46999;-68
2021/06/27 10:06:55;;;;;;;;;22.50;19.00;;;;;22.84;100.00;101051.38;5068860;27;45847;-68
2021/06/27 10:09:23;;;;;;;;;24.00;21.50;;;;;22.84;100.00;101054.03;5066854;28;45430;-68
2021/06/27 10:11:58;;;;;;;;;23.00;22.00;;;;;22.85;100.00;101059.28;5088329;27;45869;-68
2021/06/27 10:14:24;;;;;;;;;21.50;21.25;;;;;22.84;100.00;101062.88;5074536;28;45661;-67
2021/06/27 10:16:51;;;;;;;;;22.75;21.75;;;;;22.91;100.00;101066.91;5078440;27;45454;-67
2021/06/27 10:19:17;;;;;;;;;23.00;21.25;;;;;22.94;100.00;101070.34;5078448;27;45495;-67
2021/06/27 10:21:44;;;;;;;;;25.75;22.25;;;;;22.93;100.00;101069.50;5078791;27;45644;-68
2021/06/27 10:24:09;;;;;;;;;20.50;19.75;;;;;22.82;100.00;101054.13;5064117;27;46534;-68
2021/06/27 10:26:34;;;;;;;;;24.25;22.00;;;;;22.97;100.00;101075.47;5078302;28;45386;-68
2021/06/27 10:29:00;;;;;;;;;28.00;25.00;;;;;22.98;100.00;101079.84;5078738;27;45487;-68
2021/06/27 10:31:26;;;;;;;;;24.00;23.00;;;;;23.00;100.00;101077.94;5078410;28;45378;-68
2021/06/27 10:33:53;;;;;;;;;21.00;21.00;;;;;23.00;100.00;101083.28;5076876;28;46603;-67
2021/06/27 10:36:27;;;;;;;;;26.00;21.75;;;;;22.96;100.00;101071.97;5078162;27;45525;-67
2021/06/27 10:38:53;;;;;;;;;23.75;21.25;;;;;23.04;100.00;101080.34;5069670;28;45387;-68
2021/06/27 10:41:19;;;;;;;;;22.75;19.25;;;;;23.07;100.00;101073.97;5073140;28;45418;-66
2021/06/27 10:44:04;;;;;;;;;19.50;18.75;;;;;23.20;100.00;101069.59;5071563;27;45583;-67
2021/06/27 10:46:50;;;;;;;;;22.50;21.00;;;;;23.32;100.00;101074.19;5071566;28;45384;-67
2021/06/27 10:49:31;;;;;;;;;24.50;23.00;;;;;23.47;100.00;101083.00;5083424;27;45477;-67
2021/06/27 10:52:05;;;;;;;;;24.50;21.75;;;;;23.53;100.00;101086.16;5064275;27;45329;-68
2021/06/27 10:54:32;;;;;;;;;22.75;21.75;;;;;23.60;100.00;101078.66;5077766;27;45434;-67
2021/06/27 10:57:00;;;;;;;;;23.25;22.25;;;;;23.55;100.00;101071.91;5063771;28;45451;-67
2021/06/27 10:59:54;;;;;;;;;21.75;21.50;;;;;23.63;100.00;101086.47;5068127;27;45332;-68
2021/06/27 11:02:41;;;;;;;;;21.25;19.75;;;;;23.69;100.00;101090.56;5076524;28;45596;-68
2021/06/27 11:05:24;;;;;;;;;22.00;20.75;;;;;23.68;100.00;101089.69;5073184;28;46211;-67
2021/06/27 11:07:50;;;;;;;;;17.50;17.50;;;;;23.65;100.00;101084.56;5076500;28;45269;-67
2021/06/27 11:10:18;;;;;;;;;15.00;15.00;;;;;23.67;100.00;101090.66;5077541;27;45322;-67
2021/06/27 11:12:59;;;;;;;;;16.50;16.00;;;;;23.67;100.00;101087.13;5078444;28;45367;-67
2021/06/27 11:15:27;;;;;;;;;20.00;18.50;;;;;23.70;100.00;101081.59;5077602;28;45568;-67
2021/06/27 11:17:53;;;;;;;;;21.50;19.00;;;;;23.79;100.00;101089.03;5076407;28;45572;-67
2021/06/27 11:20:20;;;;;;;;;20.00;17.00;;;;;23.80;100.00;101077.41;5077737;28;45477;-68
2021/06/27 11:22:47;;;;;;;;;34.00;30.25;;;;;23.90;100.00;101086.53;5076576;28;45629;-67
2021/06/27 11:25:36;;;;;;;;;20.25;19.25;;;;;23.90;100.00;101097.19;5092839;27;47511;-68
2021/06/27 11:28:17;;;;;;;;;21.25;20.75;;;;;23.90;100.00;101091.84;5077608;27;45577;-68
2021/06/27 11:30:44;;;;;;;;;20.75;19.25;;;;;23.88;100.00;101101.75;5077707;27;45457;-68
2021/06/27 11:33:25;;;;;;;;;21.50;19.00;;;;;23.76;100.00;101102.53;5077236;27;45474;-68
2021/06/27 11:35:59;;;;;;;;;19.00;18.00;;;;;23.68;100.00;101104.84;5077287;27;46688;-67
2021/06/27 11:38:42;;;;;;;;;18.25;18.25;;;;;23.63;100.00;101105.13;5077647;28;45320;-68
2021/06/27 11:41:20;;;;;;;;;22.25;19.75;;;;;23.53;100.00;101101.28;5077520;28;45407;-68
2021/06/27 11:43:55;;;;;;;;;21.25;20.25;;;;;23.42;100.00;101099.31;5077183;27;45432;-68
2021/06/27 11:46:42;;;;;;;;;18.00;16.75;;;;;23.33;100.00;101105.22;5076994;27;45424;-68
2021/06/27 11:49:10;;;;;;;;;19.75;18.50;;;;;23.22;100.00;101097.88;5077367;27;45410;-68
2021/06/27 11:51:49;;;;;;;;;15.00;14.00;;;;;23.23;100.00;101104.91;5075694;28;45370;-68